Time;durP1;ratioP1;P1;durP2;ratioP2;P2;SDS_P1;SDS_P2;PMS_P1;PMS_P2;Temp;Humidity;BMP_temperature;BMP_pressure;BME280_temperature;BME280_humidity;BME280_pressure;Samples;Min_cycle;Max_cycle;Signal;HPM_P1;HPM_P2
2021/09/26 00:00:53;;;;;;;;;24.60;24.00;;;;;22.63;53.08;99126.94;6093364;28;96946;-62
2021/09/26 00:03:57;;;;;;;;;30.60;27.00;;;;;22.60;53.00;99124.00;6093530;28;96531;-61
2021/09/26 00:07:00;;;;;;;;;26.00;25.00;;;;;22.59;53.05;99128.66;6075829;28;97645;-61
2021/09/26 00:10:08;;;;;;;;;25.40;23.80;;;;;22.60;53.17;99133.06;6091373;28;96357;-61
2021/09/26 00:13:12;;;;;;;;;30.60;25.60;;;;;22.57;53.26;99121.84;6066861;28;96577;-60
2021/09/26 00:16:16;;;;;;;;;26.80;25.80;;;;;22.53;53.20;99124.34;6093198;28;97518;-62
2021/09/26 00:19:19;;;;;;;;;29.40;27.00;;;;;22.59;52.84;99138.84;6092560;28;96965;-59
2021/09/26 00:22:22;;;;;;;;;31.00;27.00;;;;;22.60;52.83;99141.31;6092751;28;97469;-62
2021/09/26 00:25:26;;;;;;;;;29.00;27.00;;;;;22.56;53.00;99137.50;6093133;28;96571;-62
2021/09/26 00:28:32;;;;;;;;;28.20;25.00;;;;;22.53;53.16;99134.53;6092046;28;96559;-59
2021/09/26 00:31:35;;;;;;;;;26.40;24.00;;;;;22.48;53.28;99129.91;6092224;28;96376;-60
2021/09/26 00:34:38;;;;;;;;;28.50;26.00;;;;;22.40;53.57;99127.81;6092744;28;97234;-61
2021/09/26 00:37:42;;;;;;;;;23.50;21.25;;;;;22.37;53.86;99125.66;6092705;28;97382;-60
2021/09/26 00:40:46;;;;;;;;;29.20;25.20;;;;;22.34;53.71;99129.78;6092439;28;97535;-60
2021/09/26 00:43:51;;;;;;;;;27.40;25.00;;;;;22.32;53.88;99125.72;6092168;28;97453;-61
2021/09/26 00:46:55;;;;;;;;;24.60;23.00;;;;;22.35;53.96;99131.44;6091846;28;97771;-61
2021/09/26 00:49:58;;;;;;;;;27.60;25.60;;;;;22.37;54.09;99129.22;6092011;28;97317;-61
2021/09/26 00:53:01;;;;;;;;;28.75;25.00;;;;;22.38;54.12;99132.78;6075354;28;96552;-60
2021/09/26 00:56:05;;;;;;;;;28.40;25.40;;;;;22.37;53.84;99123.72;6092595;28;96700;-61
2021/09/26 00:59:10;;;;;;;;;24.50;23.00;;;;;22.35;53.95;99122.38;6090853;28;97176;-60
2021/09/26 01:02:13;;;;;;;;;25.00;24.00;;;;;22.34;53.91;99126.22;6090554;28;97445;-60
2021/09/26 01:05:17;;;;;;;;;27.67;25.00;;;;;22.33;53.89;99130.09;6091643;28;97567;-62
2021/09/26 01:08:31;;;;;;;;;25.00;24.00;;;;;22.31;54.32;99124.06;6091923;28;96504;-61
2021/09/26 01:11:44;;;;;;;;;29.50;26.50;;;;;22.31;54.13;99129.56;6091960;28;97492;-60
2021/09/26 01:14:54;;;;;;;;;24.60;23.00;;;;;22.31;54.35;99124.88;6088733;28;97637;-62
2021/09/26 01:18:05;;;;;;;;;26.40;25.40;;;;;22.29;54.05;99129.84;6087322;28;97105;-63
2021/09/26 01:21:20;;;;;;;;;27.00;26.00;;;;;22.27;54.38;99137.56;6085472;28;96666;-62
2021/09/26 01:24:42;;;;;;;;;29.60;25.60;;;;;22.32;54.40;99137.53;6085652;28;96829;-60
2021/09/26 01:28:17;;;;;;;;;27.40;24.20;;;;;22.30;54.38;99125.16;6085826;28;97119;-61
2021/09/26 01:31:27;;;;;;;;;25.40;24.60;;;;;22.30;54.44;99127.91;6078866;28;97034;-60
2021/09/26 01:34:34;;;;;;;;;28.00;25.33;;;;;22.32;54.24;99132.03;6087163;28;97134;-60
2021/09/26 01:37:42;;;;;;;;;25.20;23.00;;;;;22.32;54.35;99151.25;6087998;28;96484;-60
2021/09/26 01:40:51;;;;;;;;;29.00;26.40;;;;;22.30;54.17;99126.00;6090329;28;97561;-62
2021/09/26 01:43:58;;;;;;;;;25.20;24.00;;;;;22.19;54.74;99137.38;6087603;28;96626;-59
2021/09/26 01:47:08;;;;;;;;;26.00;23.00;;;;;22.19;54.52;99127.22;6088314;28;97253;-59
2021/09/26 01:50:12;;;;;;;;;29.00;26.00;;;;;22.20;54.61;99125.28;6087102;28;96675;-61
2021/09/26 01:53:16;;;;;;;;;28.00;24.25;;;;;22.15;54.41;99117.94;6091091;28;97473;-61
2021/09/26 01:56:20;;;;;;;;;26.00;24.00;;;;;22.21;54.20;99127.75;6073350;28;96762;-62
2021/09/26 01:59:25;;;;;;;;;26.80;24.00;;;;;22.21;54.69;99135.16;6091201;28;97060;-59
2021/09/26 02:02:30;;;;;;;;;24.80;23.00;;;;;22.21;54.37;99138.75;6086579;28;97481;-59
2021/09/26 02:05:39;;;;;;;;;27.80;25.00;;;;;22.25;54.32;99136.22;6088312;28;97092;-59
2021/09/26 02:08:44;;;;;;;;;28.00;25.00;;;;;22.23;54.54;99133.78;6086854;28;97577;-60
2021/09/26 02:11:48;;;;;;;;;26.00;24.00;;;;;22.21;54.03;99144.22;6091234;28;97252;-59
2021/09/26 02:14:54;;;;;;;;;31.50;29.00;;;;;22.23;54.17;99142.03;6090686;28;96803;-62
2021/09/26 02:18:03;;;;;;;;;31.60;28.00;;;;;22.25;53.89;99148.03;6087205;28;97180;-61
2021/09/26 02:21:07;;;;;;;;;31.00;28.00;;;;;22.24;53.67;99140.88;6087443;28;96479;-59
2021/09/26 02:24:10;;;;;;;;;30.25;28.00;;;;;22.27;53.86;99145.00;6090292;28;97297;-61
2021/09/26 02:27:13;;;;;;;;;29.00;25.80;;;;;22.28;53.95;99150.22;6090654;28;96567;-59
2021/09/26 02:30:18;;;;;;;;;27.00;26.00;;;;;22.27;54.17;99148.56;6090738;28;96459;-59
2021/09/26 02:33:23;;;;;;;;;29.00;26.00;;;;;22.25;54.48;99147.19;6090587;28;96617;-60
2021/09/26 02:36:26;;;;;;;;;26.60;26.40;;;;;22.24;54.30;99154.63;6089446;28;96962;-61
2021/09/26 02:39:30;;;;;;;;;32.50;29.00;;;;;22.23;54.34;99155.75;6090088;28;96516;-62
2021/09/26 02:42:41;;;;;;;;;27.00;23.00;;;;;22.21;54.01;99148.91;6089788;28;97314;-61
2021/09/26 02:45:47;;;;;;;;;30.40;27.00;;;;;22.14;54.21;99145.69;6086614;28;96700;-62
2021/09/26 02:48:53;;;;;;;;;25.40;24.20;;;;;22.08;54.60;99150.41;6087107;28;97456;-62
2021/09/26 02:51:57;;;;;;;;;26.50;24.50;;;;;22.03;54.54;99155.97;6086683;28;96404;-60
2021/09/26 02:55:03;;;;;;;;;30.50;27.50;;;;;22.00;54.48;99145.53;6085698;28;96793;-60
2021/09/26 02:58:08;;;;;;;;;30.20;26.20;;;;;21.97;54.58;99148.88;6087059;28;96515;-62
2021/09/26 03:01:11;;;;;;;;;26.40;26.00;;;;;21.88;54.20;99159.66;6086455;28;97121;-61
2021/09/26 03:04:16;;;;;;;;;27.20;25.20;;;;;21.78;54.57;99158.91;6088202;28;97075;-60
2021/09/26 03:07:19;;;;;;;;;27.00;26.00;;;;;21.73;54.76;99164.44;6088168;28;97537;-62
2021/09/26 03:10:23;;;;;;;;;32.00;28.80;;;;;21.70;54.76;99170.53;6088648;28;97403;-59
2021/09/26 03:13:27;;;;;;;;;28.00;23.80;;;;;21.67;54.43;99169.16;6090503;28;97094;-59
2021/09/26 03:16:31;;;;;;;;;28.75;26.25;;;;;21.63;54.25;99165.34;6093994;28;96477;-62
2021/09/26 03:19:36;;;;;;;;;28.00;27.00;;;;;21.58;54.88;99177.19;6094342;28;96415;-60
2021/09/26 03:22:40;;;;;;;;;27.50;26.50;;;;;21.51;54.87;99178.59;6094298;28;96542;-60
2021/09/26 03:25:43;;;;;;;;;32.40;28.00;;;;;21.44;55.14;99180.88;6097985;28;97482;-60
2021/09/26 03:28:46;;;;;;;;;30.80;28.00;;;;;21.40;54.89;99177.88;6117714;28;96486;-60
2021/09/26 03:31:50;;;;;;;;;27.00;25.00;;;;;21.24;54.98;99145.34;6102498;28;96820;-60
2021/09/26 03:34:55;;;;;;;;;31.00;28.00;;;;;21.36;55.01;99165.81;6093908;28;96854;-62
2021/09/26 03:37:58;;;;;;;;;30.20;26.80;;;;;21.31;54.83;99165.03;6076614;28;97595;-59
2021/09/26 03:41:01;;;;;;;;;31.00;27.80;;;;;21.25;55.09;99169.75;6092903;28;97436;-59
2021/09/26 03:44:05;;;;;;;;;31.75;28.00;;;;;21.21;55.25;99170.63;6093486;28;96545;-62
2021/09/26 03:47:11;;;;;;;;;33.00;27.40;;;;;21.15;55.31;99172.56;6090104;28;96852;-61
2021/09/26 03:50:15;;;;;;;;;26.00;25.00;;;;;21.09;54.87;99177.22;6093903;28;96459;-61
2021/09/26 03:53:20;;;;;;;;;27.00;25.50;;;;;21.05;55.27;99173.41;6089977;28;96572;-62
2021/09/26 03:56:24;;;;;;;;;29.00;28.00;;;;;21.05;55.09;99180.81;6092653;28;96785;-61
2021/09/26 03:59:27;;;;;;;;;31.40;28.40;;;;;21.00;54.88;99181.66;6092898;28;96937;-62
2021/09/26 04:02:30;;;;;;;;;32.60;28.60;;;;;20.89;54.77;99163.63;6093159;28;97538;-60
2021/09/26 04:05:35;;;;;;;;;29.00;26.80;;;;;20.97;55.13;99178.66;6092671;28;97504;-60
2021/09/26 04:08:39;;;;;;;;;32.60;29.40;;;;;20.91;55.51;99166.91;6092784;28;97559;-61
2021/09/26 04:11:45;;;;;;;;;31.00;27.60;;;;;20.91;55.02;99179.78;6088904;28;97549;-61
2021/09/26 04:14:48;;;;;;;;;27.00;24.20;;;;;20.90;54.90;99178.16;6092837;28;97152;-59
2021/09/26 04:17:51;;;;;;;;;29.50;27.50;;;;;20.89;55.20;99176.50;6091082;28;96819;-60
2021/09/26 04:20:56;;;;;;;;;29.40;26.00;;;;;20.86;55.08;99168.84;6092419;28;96941;-61
2021/09/26 04:23:59;;;;;;;;;32.00;29.25;;;;;20.83;55.35;99163.91;6087951;28;97462;-62
2021/09/26 04:27:03;;;;;;;;;29.00;26.00;;;;;20.80;55.68;99159.84;6088544;28;96524;-62
2021/09/26 04:30:07;;;;;;;;;32.60;28.00;;;;;20.85;55.47;99169.94;6072652;28;97472;-61
2021/09/26 04:33:10;;;;;;;;;31.60;29.60;;;;;20.85;55.75;99175.44;6087528;28;97543;-60
2021/09/26 04:36:15;;;;;;;;;30.60;28.00;;;;;20.87;55.78;99174.03;6089361;28;97482;-62
2021/09/26 04:39:19;;;;;;;;;29.00;27.50;;;;;20.92;55.45;99178.66;6085447;28;97227;-61
2021/09/26 04:42:22;;;;;;;;;34.00;32.00;;;;;20.92;55.67;99184.16;6073519;28;96859;-61
2021/09/26 04:45:26;;;;;;;;;32.00;28.25;;;;;20.95;55.54;99183.59;6089851;28;96600;-62
2021/09/26 04:48:29;;;;;;;;;31.80;29.20;;;;;21.01;55.27;99186.00;6086307;28;97658;-62
2021/09/26 04:51:33;;;;;;;;;32.00;30.00;;;;;21.00;55.46;99176.19;6088648;28;97570;-61
2021/09/26 04:54:39;;;;;;;;;34.80;31.80;;;;;21.08;55.22;99188.47;6088872;28;97449;-59
2021/09/26 04:57:42;;;;;;;;;33.00;30.00;;;;;21.14;55.15;99190.94;6086484;28;97549;-60
2021/09/26 05:00:47;;;;;;;;;33.40;30.40;;;;;21.19;55.24;99190.06;6090886;28;97757;-59
2021/09/26 05:03:53;;;;;;;;;32.50;30.00;;;;;21.21;55.18;99198.81;6087364;28;96535;-62
2021/09/26 05:06:58;;;;;;;;;33.60;30.40;;;;;21.23;55.59;99202.13;6089520;28;96573;-59
2021/09/26 05:10:01;;;;;;;;;34.50;30.00;;;;;21.26;55.22;99192.53;6087178;28;96673;-62
2021/09/26 05:13:04;;;;;;;;;36.20;31.80;;;;;21.27;55.50;99200.44;6088571;28;98238;-62
2021/09/26 05:16:08;;;;;;;;;36.00;32.00;;;;;21.33;55.20;99201.22;6088884;28;96499;-60
2021/09/26 05:19:11;;;;;;;;;33.50;30.50;;;;;21.32;55.68;99200.41;6090089;28;97199;-60
2021/09/26 05:22:16;;;;;;;;;38.00;32.00;;;;;21.32;55.68;99202.31;6090173;28;96538;-59
2021/09/26 05:25:19;;;;;;;;;34.60;30.00;;;;;21.25;56.09;99210.88;6072703;28;97550;-59
2021/09/26 05:28:22;;;;;;;;;35.60;32.00;;;;;21.28;55.88;99204.00;6090123;28;97456;-61
2021/09/26 05:31:25;;;;;;;;;35.60;32.00;;;;;21.29;55.84;99203.72;6089849;28;96505;-60
2021/09/26 05:34:29;;;;;;;;;34.40;31.60;;;;;21.26;56.00;99206.22;6089498;28;97474;-59
2021/09/26 05:37:34;;;;;;;;;34.33;31.00;;;;;21.32;55.91;99210.56;6089231;28;97490;-62
2021/09/26 05:40:37;;;;;;;;;32.25;30.00;;;;;21.40;55.57;99207.22;6087758;28;96518;-60
2021/09/26 05:43:40;;;;;;;;;30.75;28.00;;;;;21.47;55.62;99211.28;6090333;28;97552;-61
2021/09/26 05:46:44;;;;;;;;;33.60;30.60;;;;;21.50;55.61;99201.69;6087950;28;96780;-59
2021/09/26 05:49:47;;;;;;;;;32.75;30.00;;;;;21.57;55.70;99213.94;6080920;28;97853;-62
2021/09/26 05:52:52;;;;;;;;;32.00;30.00;;;;;21.66;55.69;99219.66;6086751;28;98491;-62
2021/09/26 05:55:56;;;;;;;;;34.50;30.50;;;;;21.75;55.70;99219.84;6086647;28;96589;-59
2021/09/26 05:59:00;;;;;;;;;33.00;30.00;;;;;21.87;56.01;99220.31;6082324;28;98294;-62
2021/09/26 06:02:03;;;;;;;;;34.40;32.00;;;;;21.95;55.74;99226.03;6084687;28;97557;-61
2021/09/26 06:05:10;;;;;;;;;34.60;31.60;;;;;22.07;55.19;99214.69;6083973;28;97743;-60
2021/09/26 06:08:15;;;;;;;;;31.60;30.00;;;;;22.20;55.28;99215.91;6085819;28;97534;-59
2021/09/26 06:11:18;;;;;;;;;33.20;30.20;;;;;22.34;55.45;99219.63;6086716;28;96654;-63
2021/09/26 06:14:22;;;;;;;;;37.00;32.00;;;;;22.45;55.33;99224.72;6087205;28;97315;-63
2021/09/26 06:17:25;;;;;;;;;33.40;30.00;;;;;22.53;55.04;99220.50;6087349;28;98900;-62
2021/09/26 06:20:28;;;;;;;;;33.20;30.00;;;;;22.68;54.95;99225.00;6088351;28;97431;-63
2021/09/26 06:23:33;;;;;;;;;34.20;30.60;;;;;22.83;54.33;99225.69;6085030;28;98158;-61
2021/09/26 06:26:36;;;;;;;;;31.00;30.00;;;;;22.99;54.37;99231.81;6088820;28;97556;-59
2021/09/26 06:29:40;;;;;;;;;33.33;30.00;;;;;23.10;53.92;99238.84;6087105;28;97216;-60
2021/09/26 06:32:43;;;;;;;;;35.00;30.00;;;;;23.26;53.13;99236.69;6085113;28;97410;-59
2021/09/26 06:35:47;;;;;;;;;32.60;30.00;;;;;23.33;53.06;99232.47;6087291;28;97120;-60
2021/09/26 06:38:52;;;;;;;;;33.00;31.33;;;;;23.46;53.08;99239.19;6088215;28;97374;-62
2021/09/26 06:41:55;;;;;;;;;34.00;30.00;;;;;23.64;52.64;99235.63;6086220;28;98163;-62
2021/09/26 06:44:58;;;;;;;;;33.00;30.00;;;;;23.79;52.06;99248.34;6085824;28;96773;-62
2021/09/26 06:48:02;;;;;;;;;33.40;30.00;;;;;23.94;51.58;99256.34;6086264;28;96677;-62
2021/09/26 06:51:05;;;;;;;;;30.40;27.60;;;;;24.08;51.03;99251.72;6087862;28;96905;-62
2021/09/26 06:54:10;;;;;;;;;31.00;29.00;;;;;24.19;50.41;99252.34;6092540;28;96478;-63
2021/09/26 06:57:13;;;;;;;;;35.00;30.00;;;;;24.38;50.32;99252.31;6090541;28;97487;-62
2021/09/26 07:00:17;;;;;;;;;28.00;27.00;;;;;24.39;49.79;99256.69;6086923;28;97490;-62
2021/09/26 07:03:20;;;;;;;;;30.00;28.40;;;;;24.48;49.25;99252.13;6091018;28;98175;-61
2021/09/26 07:06:23;;;;;;;;;30.40;26.40;;;;;24.50;48.86;99256.22;6088786;28;97384;-62
2021/09/26 07:09:28;;;;;;;;;27.60;25.60;;;;;24.61;49.21;99254.09;6091924;28;96903;-62
2021/09/26 07:12:31;;;;;;;;;29.60;27.00;;;;;24.72;48.62;99263.81;6087087;28;97517;-59
2021/09/26 07:15:35;;;;;;;;;29.00;25.00;;;;;24.75;48.32;99263.19;6084439;28;97570;-60
2021/09/26 07:18:38;;;;;;;;;29.00;27.80;;;;;24.83;48.89;99262.47;6088533;28;96790;-59
2021/09/26 07:21:41;;;;;;;;;29.20;25.80;;;;;24.88;48.65;99258.81;6092340;28;97243;-59
2021/09/26 07:24:46;;;;;;;;;28.00;26.60;;;;;24.94;48.63;99271.38;6092297;28;97441;-62
2021/09/26 07:27:50;;;;;;;;;26.00;24.00;;;;;24.98;49.05;99275.16;6090385;28;96911;-62
2021/09/26 07:30:53;;;;;;;;;27.00;25.00;;;;;25.02;49.08;99265.97;6090794;28;97745;-60
2021/09/26 07:33:58;;;;;;;;;26.00;23.40;;;;;25.13;48.58;99266.56;6091190;28;97415;-59
2021/09/26 07:37:01;;;;;;;;;28.00;25.00;;;;;25.19;48.68;99270.88;6090658;28;97527;-63
2021/09/26 07:40:08;;;;;;;;;29.00;27.20;;;;;25.34;47.88;99278.81;6090181;28;96650;-60
2021/09/26 07:43:11;;;;;;;;;28.20;26.20;;;;;25.40;47.58;99288.63;6091218;28;97090;-59
2021/09/26 07:46:30;;;;;;;;;29.50;26.50;;;;;25.50;47.63;99293.13;6092164;28;97483;-59
2021/09/26 07:49:34;;;;;;;;;31.00;29.20;;;;;25.60;47.93;99286.56;6074786;28;96667;-60
2021/09/26 07:52:38;;;;;;;;;34.50;29.50;;;;;25.75;47.23;99284.28;6089197;28;98208;-60
2021/09/26 07:55:42;;;;;;;;;32.60;27.40;;;;;25.93;47.21;99290.75;6071697;28;96919;-61
2021/09/26 07:58:45;;;;;;;;;33.00;28.00;;;;;26.11;46.69;99280.66;6088663;28;97775;-62
2021/09/26 08:01:49;;;;;;;;;31.40;29.40;;;;;26.26;46.48;99294.13;6084805;28;98365;-62
2021/09/26 08:04:53;;;;;;;;;29.00;26.00;;;;;26.51;45.82;99282.41;6073621;28;96750;-60
2021/09/26 08:07:56;;;;;;;;;30.50;28.75;;;;;26.77;44.70;99279.78;6089513;28;97613;-59
2021/09/26 08:11:02;;;;;;;;;34.00;30.00;;;;;27.27;44.12;99282.28;6086937;28;97809;-62
2021/09/26 08:14:05;;;;;;;;;31.00;27.00;;;;;27.65;43.25;99288.88;6083556;28;97593;-59
2021/09/26 08:17:08;;;;;;;;;30.75;28.00;;;;;28.01;42.75;99288.53;6082593;28;97253;-60
2021/09/26 08:20:13;;;;;;;;;29.60;28.00;;;;;28.99;40.89;99284.94;6081730;28;98195;-59
2021/09/26 08:23:16;;;;;;;;;29.00;28.00;;;;;29.82;39.05;99283.13;6081960;28;97868;-63
2021/09/26 08:26:21;;;;;;;;;25.80;23.80;;;;;30.87;36.88;99284.59;6083173;28;97479;-61
2021/09/26 08:29:24;;;;;;;;;24.60;23.60;;;;;31.69;35.74;99283.34;6085526;28;96830;-60
2021/09/26 08:32:27;;;;;;;;;24.00;22.80;;;;;32.17;33.71;99279.59;6070846;28;99369;-61
2021/09/26 08:35:31;;;;;;;;;20.80;18.80;;;;;32.56;33.44;99279.84;6091653;28;97156;-62
2021/09/26 08:38:35;;;;;;;;;19.00;18.00;;;;;33.03;32.61;99285.50;6089706;28;97142;-59
2021/09/26 08:41:40;;;;;;;;;20.75;19.25;;;;;33.39;31.00;99276.84;6082271;28;96657;-59
2021/09/26 08:44:43;;;;;;;;;20.20;19.80;;;;;33.73;30.79;99283.63;6089798;28;97705;-59
2021/09/26 08:47:47;;;;;;;;;20.60;20.60;;;;;34.19;29.77;99281.03;6090323;28;96449;-59
2021/09/26 08:50:51;;;;;;;;;19.60;17.00;;;;;34.54;29.65;99280.91;6090698;28;96617;-62
2021/09/26 08:53:55;;;;;;;;;19.80;18.00;;;;;34.80;28.69;99286.59;6090051;28;97420;-62
2021/09/26 08:57:01;;;;;;;;;15.50;15.00;;;;;34.99;28.85;99285.75;6088778;28;97924;-60
2021/09/26 09:00:05;;;;;;;;;20.40;17.60;;;;;35.27;28.10;99283.44;6087496;28;96746;-59
2021/09/26 09:03:11;;;;;;;;;18.00;17.00;;;;;35.50;28.77;99275.78;6089257;28;96678;-59
2021/09/26 09:06:16;;;;;;;;;19.00;18.00;;;;;35.94;28.06;99284.44;6089672;28;97496;-59
2021/09/26 09:09:21;;;;;;;;;21.00;20.00;;;;;35.93;27.13;99280.00;6071175;28;96853;-61
2021/09/26 09:12:31;;;;;;;;;19.00;18.00;;;;;36.17;27.55;99280.72;6082911;28;97899;-60
2021/09/26 09:15:35;;;;;;;;;18.00;17.60;;;;;36.62;26.20;99277.66;6091136;28;96614;-61
2021/09/26 09:18:42;;;;;;;;;18.25;17.00;;;;;36.67;26.01;99282.91;6088741;28;96780;-62
2021/09/26 09:21:45;;;;;;;;;17.60;16.00;;;;;36.54;26.39;99275.13;6090210;28;96619;-59
2021/09/26 09:24:48;;;;;;;;;16.67;16.67;;;;;36.79;26.02;99277.03;6074016;28;97105;-59
2021/09/26 09:27:53;;;;;;;;;18.80;16.80;;;;;37.14;26.40;99276.53;6088556;28;96750;-62
2021/09/26 09:30:59;;;;;;;;;18.00;17.00;;;;;37.19;25.38;99275.38;6089819;28;98120;-64
2021/09/26 09:34:05;;;;;;;;;17.67;17.67;;;;;37.45;25.50;99272.34;6090364;28;97007;-60
2021/09/26 09:37:13;;;;;;;;;18.00;17.00;;;;;37.88;25.37;99269.78;6071349;28;97973;-62
2021/09/26 09:40:19;;;;;;;;;16.67;15.00;;;;;38.17;25.03;99266.72;6053171;28;97498;-60
2021/09/26 09:43:26;;;;;;;;;15.80;14.00;;;;;38.44;23.44;99263.63;6089880;28;97528;-63
2021/09/26 09:46:32;;;;;;;;;17.40;15.40;;;;;38.09;23.87;99259.47;6089402;28;97534;-62
2021/09/26 09:49:36;;;;;;;;;16.00;15.00;;;;;37.98;24.17;99272.66;6074171;28;97454;-59
2021/09/26 09:52:46;;;;;;;;;17.00;16.00;;;;;38.02;23.56;99267.88;6089283;28;98533;-61
2021/09/26 09:55:59;;;;;;;;;13.60;13.00;;;;;37.61;24.28;99258.81;6090543;28;97537;-62
2021/09/26 09:59:04;;;;;;;;;13.60;13.00;;;;;37.13;24.50;99258.06;6081747;28;97585;-60
2021/09/26 10:02:08;;;;;;;;;13.50;13.00;;;;;37.15;24.25;99257.66;6085381;28;96982;-60
2021/09/26 10:05:33;;;;;;;;;12.60;12.20;;;;;37.03;23.86;99258.75;6090635;28;97302;-62
2021/09/26 10:08:36;;;;;;;;;16.00;14.00;;;;;37.05;24.21;99261.16;6090911;28;96746;-59
2021/09/26 10:12:00;;;;;;;;;13.60;12.00;;;;;37.46;24.54;99256.28;6087563;28;98073;-61
2021/09/26 10:15:06;;;;;;;;;12.00;12.00;;;;;37.69;24.17;99254.81;6090139;28;96542;-61
2021/09/26 10:18:10;;;;;;;;;14.25;13.25;;;;;37.51;23.03;99261.53;6090980;28;96454;-60
2021/09/26 10:21:14;;;;;;;;;13.50;12.00;;;;;37.42;23.95;99253.44;6090744;28;96602;-61
2021/09/26 10:24:20;;;;;;;;;12.00;12.00;;;;;37.63;23.70;99256.41;6089411;28;96522;-59
2021/09/26 10:27:24;;;;;;;;;11.00;11.00;;;;;37.87;23.47;99251.31;6090212;28;96507;-61
2021/09/26 10:30:30;;;;;;;;;11.00;11.00;;;;;38.20;22.88;99261.50;6089389;28;97508;-59
2021/09/26 10:33:34;;;;;;;;;13.00;12.00;;;;;38.38;22.02;99246.25;6089822;28;97166;-59
2021/09/26 10:36:38;;;;;;;;;13.00;13.00;;;;;38.35;23.56;99247.06;6089619;28;96639;-61
2021/09/26 10:39:43;;;;;;;;;15.00;14.00;;;;;38.30;23.82;99239.03;6089660;28;96762;-62
2021/09/26 10:42:46;;;;;;;;;14.00;13.00;;;;;38.53;24.25;99250.75;6089071;28;97947;-61
2021/09/26 10:46:10;;;;;;;;;13.00;12.00;;;;;38.31;23.09;99242.63;6089848;28;96785;-61
2021/09/26 10:49:15;;;;;;;;;11.00;10.00;;;;;37.94;23.63;99249.31;6089832;28;96724;-60
2021/09/26 10:52:42;;;;;;;;;14.40;14.00;;;;;37.54;25.04;99243.88;6087203;28;98010;-60
2021/09/26 10:55:46;;;;;;;;;16.60;15.60;;;;;37.47;25.14;99241.00;6085764;28;98283;-61
2021/09/26 10:58:56;;;;;;;;;16.60;16.60;;;;;37.85;25.11;99234.00;6072779;28;97382;-59
2021/09/26 11:02:37;;;;;;;;;16.00;15.33;;;;;38.28;24.33;99226.53;6090470;28;97595;-59
2021/09/26 11:05:43;;;;;;;;;19.00;17.80;;;;;38.54;24.59;99231.84;6076728;28;97305;-60
2021/09/26 11:08:53;;;;;;;;;16.00;15.00;;;;;38.61;24.03;99231.84;6089152;28;97801;-59
2021/09/26 11:11:57;;;;;;;;;15.20;14.80;;;;;38.56;23.66;99229.44;6089471;28;96550;-62
2021/09/26 11:15:02;;;;;;;;;17.00;16.00;;;;;38.63;23.84;99231.44;6089114;28;97781;-59
2021/09/26 11:18:07;;;;;;;;;13.60;12.60;;;;;38.59;24.02;99228.63;6089170;28;96511;-62
2021/09/26 11:21:51;;;;;;;;;15.00;15.00;;;;;38.52;23.79;99229.41;6089906;28;96524;-62
2021/09/26 11:25:00;;;;;;;;;14.00;12.00;;;;;38.53;23.71;99230.22;6085731;28;96532;-59
2021/09/26 11:28:23;;;;;;;;;13.40;13.00;;;;;38.47;23.71;99220.56;6088467;28;96882;-62
2021/09/26 11:31:40;;;;;;;;;14.40;14.40;;;;;38.69;23.41;99216.56;6062690;28;97791;-62
2021/09/26 11:34:47;;;;;;;;;12.00;11.00;;;;;38.88;23.30;99218.19;6089128;28;97538;-59
2021/09/26 11:38:03;;;;;;;;;14.25;13.00;;;;;39.00;23.31;99220.59;6093947;28;96469;-62
2021/09/26 11:41:08;;;;;;;;;12.60;12.60;;;;;38.56;22.95;99204.88;6091669;28;96645;-60
2021/09/26 11:44:16;;;;;;;;;14.20;14.00;;;;;38.56;23.77;99201.28;6092074;28;96764;-62
2021/09/26 11:47:19;;;;;;;;;14.00;13.00;;;;;38.43;23.15;99205.63;6091559;28;97494;-59
2021/09/26 11:50:24;;;;;;;;;14.00;13.60;;;;;38.46;23.31;99194.38;6088800;28;97487;-60
2021/09/26 11:53:27;;;;;;;;;14.80;13.00;;;;;38.42;23.64;99189.94;6089772;28;98574;-62
2021/09/26 11:56:33;;;;;;;;;14.00;13.00;;;;;38.43;23.53;99183.09;6089313;28;96543;-62
2021/09/26 11:59:38;;;;;;;;;12.75;12.00;;;;;38.45;22.98;99183.53;6087317;28;98523;-59
2021/09/26 12:02:41;;;;;;;;;13.00;12.00;;;;;38.17;24.24;99185.06;6071201;28;97402;-60
2021/09/26 12:05:46;;;;;;;;;13.33;12.33;;;;;37.99;23.57;99180.59;6090268;28;97375;-63
2021/09/26 12:08:50;;;;;;;;;14.00;12.00;;;;;37.78;25.19;99186.91;6091891;28;97454;-60
2021/09/26 12:11:53;;;;;;;;;14.00;13.00;;;;;37.87;24.44;99184.56;6089980;28;96721;-59
2021/09/26 12:15:04;;;;;;;;;12.40;12.00;;;;;38.03;24.94;99187.03;6090041;28;97849;-62
2021/09/26 12:18:08;;;;;;;;;11.00;11.00;;;;;37.96;23.97;99182.19;6087371;28;97557;-59
2021/09/26 12:21:12;;;;;;;;;12.80;11.80;;;;;37.44;24.17;99174.28;6089893;28;96836;-60
2021/09/26 12:24:17;;;;;;;;;11.60;10.60;;;;;37.02;24.52;99174.81;6090904;28;97591;-62
2021/09/26 12:27:28;;;;;;;;;11.00;11.00;;;;;36.96;25.22;99168.75;6089528;28;96589;-61
2021/09/26 12:30:45;;;;;;;;;12.00;11.00;;;;;36.79;26.02;99166.63;6085569;28;97483;-62
2021/09/26 12:33:48;;;;;;;;;12.50;11.50;;;;;36.77;26.13;99164.19;6090786;28;97362;-62
2021/09/26 12:36:52;;;;;;;;;10.00;9.25;;;;;37.00;24.92;99163.13;6088312;28;97137;-59
2021/09/26 12:39:59;;;;;;;;;12.50;12.50;;;;;36.79;24.71;99161.81;6089392;28;96777;-61
2021/09/26 12:43:05;;;;;;;;;11.00;10.80;;;;;36.65;25.51;99164.53;6090846;28;98145;-59
2021/09/26 12:46:10;;;;;;;;;10.60;10.40;;;;;36.49;26.06;99158.31;6089038;28;98433;-61
2021/09/26 12:49:16;;;;;;;;;11.00;9.80;;;;;36.33;25.58;99160.56;6086820;28;97487;-59
2021/09/26 12:52:24;;;;;;;;;9.00;9.00;;;;;36.13;26.29;99154.38;6088433;28;96872;-59
2021/09/26 12:55:32;;;;;;;;;12.00;11.00;;;;;35.83;26.06;99154.41;6088582;28;97014;-60
2021/09/26 12:58:40;;;;;;;;;10.00;10.00;;;;;35.18;27.06;99153.97;6088256;28;97066;-62
2021/09/26 13:01:44;;;;;;;;;13.00;11.80;;;;;35.00;27.41;99156.47;6087236;28;96812;-61
2021/09/26 13:05:01;;;;;;;;;10.00;9.00;;;;;34.89;28.03;99155.53;6089350;28;96555;-61
2021/09/26 13:08:09;;;;;;;;;11.20;9.80;;;;;34.64;27.79;99155.09;6088863;28;97076;-62
2021/09/26 13:11:30;;;;;;;;;12.00;12.00;;;;;34.29;29.01;99143.28;6073061;28;96854;-61
2021/09/26 13:14:36;;;;;;;;;12.00;11.00;;;;;34.06;28.81;99131.25;6069637;28;97594;-60
2021/09/26 13:17:41;;;;;;;;;10.00;9.40;;;;;34.37;28.97;99150.63;6071755;28;97747;-62
2021/09/26 13:20:45;;;;;;;;;10.00;9.00;;;;;34.52;28.58;99141.28;6084940;28;97533;-60
2021/09/26 13:23:57;;;;;;;;;11.00;11.00;;;;;34.69;28.06;99149.19;6091810;28;96602;-62
2021/09/26 13:27:19;;;;;;;;;9.00;9.00;;;;;34.74;27.88;99151.69;6091818;28;96479;-61
2021/09/26 13:30:29;;;;;;;;;8.00;8.00;;;;;34.66;28.70;99160.28;6089579;28;96691;-60
2021/09/26 13:33:35;;;;;;;;;9.00;9.00;;;;;34.43;27.79;99142.72;6090802;28;97126;-61
2021/09/26 13:36:41;;;;;;;;;9.40;9.00;;;;;34.28;28.97;99150.88;6089045;28;96861;-59
2021/09/26 13:39:48;;;;;;;;;8.20;8.00;;;;;34.02;29.17;99150.75;6054649;28;97988;-59
2021/09/26 13:42:58;;;;;;;;;8.00;8.00;;;;;33.63;29.17;99147.16;6091334;28;96437;-59
2021/09/26 13:46:03;;;;;;;;;10.00;9.00;;;;;33.46;30.24;99144.81;6091905;28;97475;-58
2021/09/26 13:49:08;;;;;;;;;9.00;8.60;;;;;33.23;29.82;99136.34;6091497;28;97115;-61
2021/09/26 13:52:11;;;;;;;;;9.00;8.00;;;;;33.16;30.44;99132.56;6090651;28;98145;-61
2021/09/26 13:55:15;;;;;;;;;10.00;9.00;;;;;33.09;30.11;99138.78;6090339;28;97304;-58
2021/09/26 13:58:21;;;;;;;;;8.00;8.00;;;;;33.09;30.23;99135.97;6090718;28;97445;-60
2021/09/26 14:01:26;;;;;;;;;10.00;9.40;;;;;33.14;30.37;99130.09;6091603;28;97244;-61
2021/09/26 14:04:29;;;;;;;;;9.00;8.00;;;;;33.21;30.61;99123.91;6091422;28;97508;-62
2021/09/26 14:07:33;;;;;;;;;10.40;9.00;;;;;33.10;30.67;99123.63;6091067;28;97002;-58
2021/09/26 14:10:36;;;;;;;;;9.80;8.80;;;;;33.12;30.59;99120.50;6090819;28;97496;-61
2021/09/26 14:13:41;;;;;;;;;11.00;10.00;;;;;32.90;30.99;99121.97;6090610;28;97470;-60
2021/09/26 14:16:45;;;;;;;;;10.40;10.00;;;;;32.72;30.96;99126.34;6091140;28;97989;-61